sensor_id;sensor_type;location;lat;lon;timestamp;P1;durP1;ratioP1;P2;durP2;ratioP2
65665;SDS011;52365;47.464;18.976;2023-12-14T00:00:07;8.20;;;5.60;;
65665;SDS011;52365;47.464;18.976;2023-12-14T00:00:24;8.23;;;5.32;;
65665;SDS011;52365;47.464;18.976;2023-12-14T00:00:45;7.30;;;5.07;;
65665;SDS011;52365;47.464;18.976;2023-12-14T00:01:01;7.70;;;5.20;;
65665;SDS011;52365;47.464;18.976;2023-12-14T00:01:22;6.68;;;4.70;;
65665;SDS011;52365;47.464;18.976;2023-12-14T00:01:43;5.57;;;3.85;;
65665;SDS011;52365;47.464;18.976;2023-12-14T00:02:06;5.10;;;3.90;;
65665;SDS011;52365;47.464;18.976;2023-12-14T00:02:22;4.97;;;3.80;;
65665;SDS011;52365;47.464;18.976;2023-12-14T00:02:43;4.30;;;3.40;;
65665;SDS011;52365;47.464;18.976;2023-12-14T00:02:59;4.55;;;3.40;;
65665;SDS011;52365;47.464;18.976;2023-12-14T00:03:20;4.95;;;3.47;;
65665;SDS011;52365;47.464;18.976;2023-12-14T00:03:41;4.20;;;3.20;;
65665;SDS011;52365;47.464;18.976;2023-12-14T00:04:04;3.60;;;2.72;;
65665;SDS011;52365;47.464;18.976;2023-12-14T00:04:25;3.95;;;2.87;;
65665;SDS011;52365;47.464;18.976;2023-12-14T00:04:41;4.07;;;3.00;;
65665;SDS011;52365;47.464;18.976;2023-12-14T00:04:58;4.05;;;3.12;;
65665;SDS011;52365;47.464;18.976;2023-12-14T00:05:14;4.30;;;3.30;;
65665;SDS011;52365;47.464;18.976;2023-12-14T00:05:35;4.07;;;2.92;;
65665;SDS011;52365;47.464;18.976;2023-12-14T00:05:56;3.97;;;2.90;;
65665;SDS011;52365;47.464;18.976;2023-12-14T00:06:12;3.85;;;2.87;;
65665;SDS011;52365;47.464;18.976;2023-12-14T00:06:28;3.85;;;2.90;;
65665;SDS011;52365;47.464;18.976;2023-12-14T00:06:49;4.12;;;2.80;;
65665;SDS011;52365;47.464;18.976;2023-12-14T00:07:06;3.97;;;2.80;;
65665;SDS011;52365;47.464;18.976;2023-12-14T00:07:27;3.75;;;2.78;;
65665;SDS011;52365;47.464;18.976;2023-12-14T00:07:48;4.43;;;3.03;;
65665;SDS011;52365;47.464;18.976;2023-12-14T00:08:09;5.50;;;2.85;;
65665;SDS011;52365;47.464;18.976;2023-12-14T00:08:25;3.92;;;2.60;;
65665;SDS011;52365;47.464;18.976;2023-12-14T00:08:46;4.53;;;3.12;;
65665;SDS011;52365;47.464;18.976;2023-12-14T00:09:07;5.00;;;3.22;;
65665;SDS011;52365;47.464;18.976;2023-12-14T00:09:24;3.90;;;3.17;;
65665;SDS011;52365;47.464;18.976;2023-12-14T00:09:45;3.80;;;2.90;;
65665;SDS011;52365;47.464;18.976;2023-12-14T00:10:06;4.32;;;2.85;;
65665;SDS011;52365;47.464;18.976;2023-12-14T00:10:27;3.97;;;2.83;;
65665;SDS011;52365;47.464;18.976;2023-12-14T00:10:44;4.28;;;2.92;;
65665;SDS011;52365;47.464;18.976;2023-12-14T00:11:05;3.72;;;3.03;;
65665;SDS011;52365;47.464;18.976;2023-12-14T00:11:27;4.20;;;3.12;;
65665;SDS011;52365;47.464;18.976;2023-12-14T00:11:48;4.03;;;3.17;;
65665;SDS011;52365;47.464;18.976;2023-12-14T00:12:09;3.87;;;3.03;;
65665;SDS011;52365;47.464;18.976;2023-12-14T00:12:25;3.97;;;2.95;;
65665;SDS011;52365;47.464;18.976;2023-12-14T00:12:46;3.72;;;2.80;;
65665;SDS011;52365;47.464;18.976;2023-12-14T00:13:09;3.83;;;2.78;;
65665;SDS011;52365;47.464;18.976;2023-12-14T00:13:25;4.22;;;3.00;;
65665;SDS011;52365;47.464;18.976;2023-12-14T00:13:41;4.62;;;3.30;;
65665;SDS011;52365;47.464;18.976;2023-12-14T00:13:58;4.62;;;3.22;;
65665;SDS011;52365;47.464;18.976;2023-12-14T00:14:19;3.85;;;3.10;;
65665;SDS011;52365;47.464;18.976;2023-12-14T00:14:35;4.05;;;3.37;;
65665;SDS011;52365;47.464;18.976;2023-12-14T00:14:51;4.75;;;3.45;;
65665;SDS011;52365;47.464;18.976;2023-12-14T00:15:07;5.00;;;3.28;;
65665;SDS011;52365;47.464;18.976;2023-12-14T00:15:23;4.18;;;3.03;;
65665;SDS011;52365;47.464;18.976;2023-12-14T00:15:39;4.00;;;2.97;;
65665;SDS011;52365;47.464;18.976;2023-12-14T00:16:01;3.78;;;3.05;;
65665;SDS011;52365;47.464;18.976;2023-12-14T00:16:17;3.80;;;3.00;;
65665;SDS011;52365;47.464;18.976;2023-12-14T00:16:38;4.05;;;3.30;;
65665;SDS011;52365;47.464;18.976;2023-12-14T00:16:55;4.53;;;3.40;;
65665;SDS011;52365;47.464;18.976;2023-12-14T00:17:19;4.45;;;3.35;;
65665;SDS011;52365;47.464;18.976;2023-12-14T00:17:36;4.10;;;3.25;;
65665;SDS011;52365;47.464;18.976;2023-12-14T00:17:57;3.72;;;2.72;;
65665;SDS011;52365;47.464;18.976;2023-12-14T00:18:18;4.20;;;2.78;;
65665;SDS011;52365;47.464;18.976;2023-12-14T00:18:39;4.47;;;3.03;;
65665;SDS011;52365;47.464;18.976;2023-12-14T00:19:00;4.30;;;3.10;;
65665;SDS011;52365;47.464;18.976;2023-12-14T00:19:16;4.18;;;3.00;;
65665;SDS011;52365;47.464;18.976;2023-12-14T00:19:32;4.12;;;2.87;;
65665;SDS011;52365;47.464;18.976;2023-12-14T00:19:53;4.57;;;3.03;;
65665;SDS011;52365;47.464;18.976;2023-12-14T00:20:09;3.83;;;2.87;;
65665;SDS011;52365;47.464;18.976;2023-12-14T00:20:31;4.05;;;2.95;;
65665;SDS011;52365;47.464;18.976;2023-12-14T00:20:47;4.60;;;3.20;;
65665;SDS011;52365;47.464;18.976;2023-12-14T00:21:04;4.05;;;3.03;;
65665;SDS011;52365;47.464;18.976;2023-12-14T00:21:20;4.03;;;3.05;;
65665;SDS011;52365;47.464;18.976;2023-12-14T00:21:41;4.80;;;3.40;;
65665;SDS011;52365;47.464;18.976;2023-12-14T00:22:03;4.87;;;3.40;;
65665;SDS011;52365;47.464;18.976;2023-12-14T00:22:24;4.57;;;3.30;;
65665;SDS011;52365;47.464;18.976;2023-12-14T00:22:40;4.93;;;3.30;;
65665;SDS011;52365;47.464;18.976;2023-12-14T00:23:01;4.28;;;3.00;;
65665;SDS011;52365;47.464;18.976;2023-12-14T00:23:17;4.57;;;3.40;;
65665;SDS011;52365;47.464;18.976;2023-12-14T00:23:39;4.62;;;3.20;;
65665;SDS011;52365;47.464;18.976;2023-12-14T00:23:55;4.70;;;3.20;;
65665;SDS011;52365;47.464;18.976;2023-12-14T00:24:11;4.32;;;2.97;;
65665;SDS011;52365;47.464;18.976;2023-12-14T00:24:32;4.03;;;3.00;;
65665;SDS011;52365;47.464;18.976;2023-12-14T00:24:53;4.32;;;3.30;;
65665;SDS011;52365;47.464;18.976;2023-12-14T00:25:09;4.40;;;3.40;;
65665;SDS011;52365;47.464;18.976;2023-12-14T00:25:30;4.82;;;3.50;;
65665;SDS011;52365;47.464;18.976;2023-12-14T00:25:51;4.28;;;3.20;;
65665;SDS011;52365;47.464;18.976;2023-12-14T00:26:07;4.32;;;3.20;;
65665;SDS011;52365;47.464;18.976;2023-12-14T00:26:24;4.60;;;3.33;;
65665;SDS011;52365;47.464;18.976;2023-12-14T00:26:45;4.90;;;3.42;;
65665;SDS011;52365;47.464;18.976;2023-12-14T00:27:01;5.22;;;3.70;;
65665;SDS011;52365;47.464;18.976;2023-12-14T00:27:17;4.62;;;3.50;;
65665;SDS011;52365;47.464;18.976;2023-12-14T00:27:38;3.83;;;2.87;;
65665;SDS011;52365;47.464;18.976;2023-12-14T00:27:54;4.57;;;3.28;;
65665;SDS011;52365;47.464;18.976;2023-12-14T00:28:10;5.53;;;3.40;;
65665;SDS011;52365;47.464;18.976;2023-12-14T00:28:31;5.35;;;3.33;;
65665;SDS011;52365;47.464;18.976;2023-12-14T00:28:47;4.70;;;3.47;;
65665;SDS011;52365;47.464;18.976;2023-12-14T00:29:09;4.62;;;3.50;;
65665;SDS011;52365;47.464;18.976;2023-12-14T00:29:25;5.12;;;3.50;;
65665;SDS011;52365;47.464;18.976;2023-12-14T00:29:41;5.32;;;3.47;;
65665;SDS011;52365;47.464;18.976;2023-12-14T00:30:02;6.93;;;3.70;;
65665;SDS011;52365;47.464;18.976;2023-12-14T00:30:19;5.65;;;3.65;;
65665;SDS011;52365;47.464;18.976;2023-12-14T00:30:35;4.68;;;3.30;;
65665;SDS011;52365;47.464;18.976;2023-12-14T00:30:56;4.22;;;3.28;;
65665;SDS011;52365;47.464;18.976;2023-12-14T00:31:12;4.60;;;3.50;;
65665;SDS011;52365;47.464;18.976;2023-12-14T00:31:33;4.53;;;3.53;;
65665;SDS011;52365;47.464;18.976;2023-12-14T00:31:49;4.75;;;3.37;;
65665;SDS011;52365;47.464;18.976;2023-12-14T00:32:05;4.85;;;3.60;;
65665;SDS011;52365;47.464;18.976;2023-12-14T00:32:22;4.47;;;3.45;;
65665;SDS011;52365;47.464;18.976;2023-12-14T00:32:38;4.47;;;3.30;;
65665;SDS011;52365;47.464;18.976;2023-12-14T00:32:54;4.65;;;3.35;;
65665;SDS011;52365;47.464;18.976;2023-12-14T00:33:10;4.22;;;3.20;;
65665;SDS011;52365;47.464;18.976;2023-12-14T00:33:31;4.25;;;3.35;;
65665;SDS011;52365;47.464;18.976;2023-12-14T00:33:53;4.78;;;3.50;;
65665;SDS011;52365;47.464;18.976;2023-12-14T00:34:14;5.37;;;3.47;;
65665;SDS011;52365;47.464;18.976;2023-12-14T00:34:35;5.50;;;3.90;;
65665;SDS011;52365;47.464;18.976;2023-12-14T00:34:51;5.55;;;4.00;;
65665;SDS011;52365;47.464;18.976;2023-12-14T00:35:07;4.72;;;3.58;;
65665;SDS011;52365;47.464;18.976;2023-12-14T00:35:23;4.57;;;3.55;;
65665;SDS011;52365;47.464;18.976;2023-12-14T00:35:39;4.90;;;3.85;;
65665;SDS011;52365;47.464;18.976;2023-12-14T00:36:00;5.22;;;3.80;;
65665;SDS011;52365;47.464;18.976;2023-12-14T00:36:21;4.95;;;3.60;;
65665;SDS011;52365;47.464;18.976;2023-12-14T00:36:42;5.43;;;3.70;;
65665;SDS011;52365;47.464;18.976;2023-12-14T00:37:03;4.90;;;3.70;;
65665;SDS011;52365;47.464;18.976;2023-12-14T00:37:24;4.78;;;3.70;;
65665;SDS011;52365;47.464;18.976;2023-12-14T00:37:45;4.87;;;3.80;;
65665;SDS011;52365;47.464;18.976;2023-12-14T00:38:06;5.05;;;4.00;;
65665;SDS011;52365;47.464;18.976;2023-12-14T00:38:27;5.55;;;3.85;;
65665;SDS011;52365;47.464;18.976;2023-12-14T00:38:48;5.10;;;3.62;;
65665;SDS011;52365;47.464;18.976;2023-12-14T00:39:10;5.30;;;3.78;;
65665;SDS011;52365;47.464;18.976;2023-12-14T00:39:31;5.12;;;3.72;;
65665;SDS011;52365;47.464;18.976;2023-12-14T00:39:52;4.87;;;3.70;;
65665;SDS011;52365;47.464;18.976;2023-12-14T00:40:08;4.93;;;3.80;;
65665;SDS011;52365;47.464;18.976;2023-12-14T00:40:25;5.25;;;3.90;;
65665;SDS011;52365;47.464;18.976;2023-12-14T00:40:46;6.35;;;4.25;;
65665;SDS011;52365;47.464;18.976;2023-12-14T00:41:07;5.72;;;4.30;;
65665;SDS011;52365;47.464;18.976;2023-12-14T00:41:28;5.80;;;4.40;;
65665;SDS011;52365;47.464;18.976;2023-12-14T00:41:44;5.12;;;4.30;;
65665;SDS011;52365;47.464;18.976;2023-12-14T00:42:05;5.35;;;4.10;;
65665;SDS011;52365;47.464;18.976;2023-12-14T00:42:21;6.12;;;4.30;;
65665;SDS011;52365;47.464;18.976;2023-12-14T00:42:42;5.62;;;4.30;;
65665;SDS011;52365;47.464;18.976;2023-12-14T00:43:03;6.30;;;4.60;;
65665;SDS011;52365;47.464;18.976;2023-12-14T00:43:20;6.25;;;4.55;;
65665;SDS011;52365;47.464;18.976;2023-12-14T00:43:41;5.90;;;4.70;;
65665;SDS011;52365;47.464;18.976;2023-12-14T00:44:02;6.43;;;5.00;;
65665;SDS011;52365;47.464;18.976;2023-12-14T00:44:18;6.53;;;4.78;;
65665;SDS011;52365;47.464;18.976;2023-12-14T00:44:34;6.45;;;4.78;;
65665;SDS011;52365;47.464;18.976;2023-12-14T00:44:50;6.40;;;4.68;;
65665;SDS011;52365;47.464;18.976;2023-12-14T00:45:07;6.50;;;4.78;;
65665;SDS011;52365;47.464;18.976;2023-12-14T00:45:28;6.55;;;4.70;;
65665;SDS011;52365;47.464;18.976;2023-12-14T00:45:49;6.95;;;5.10;;
65665;SDS011;52365;47.464;18.976;2023-12-14T00:46:05;7.30;;;5.12;;
65665;SDS011;52365;47.464;18.976;2023-12-14T00:46:27;6.78;;;5.10;;
65665;SDS011;52365;47.464;18.976;2023-12-14T00:46:43;6.70;;;4.93;;
65665;SDS011;52365;47.464;18.976;2023-12-14T00:47:04;7.18;;;5.25;;
65665;SDS011;52365;47.464;18.976;2023-12-14T00:47:25;6.50;;;4.90;;
65665;SDS011;52365;47.464;18.976;2023-12-14T00:47:46;7.25;;;5.00;;
65665;SDS011;52365;47.464;18.976;2023-12-14T00:48:07;7.00;;;5.05;;
65665;SDS011;52365;47.464;18.976;2023-12-14T00:48:28;7.05;;;5.25;;
65665;SDS011;52365;47.464;18.976;2023-12-14T00:48:49;6.55;;;5.00;;
65665;SDS011;52365;47.464;18.976;2023-12-14T00:49:06;7.45;;;4.97;;
65665;SDS011;52365;47.464;18.976;2023-12-14T00:49:27;7.20;;;4.82;;
65665;SDS011;52365;47.464;18.976;2023-12-14T00:49:49;7.97;;;5.32;;
65665;SDS011;52365;47.464;18.976;2023-12-14T00:50:10;7.93;;;5.82;;
65665;SDS011;52365;47.464;18.976;2023-12-14T00:50:26;7.37;;;5.50;;
65665;SDS011;52365;47.464;18.976;2023-12-14T00:50:47;7.97;;;5.30;;
65665;SDS011;52365;47.464;18.976;2023-12-14T00:51:08;7.78;;;5.20;;
65665;SDS011;52365;47.464;18.976;2023-12-14T00:51:24;7.00;;;5.05;;
65665;SDS011;52365;47.464;18.976;2023-12-14T00:51:45;7.32;;;5.30;;
65665;SDS011;52365;47.464;18.976;2023-12-14T00:52:06;7.97;;;5.50;;
65665;SDS011;52365;47.464;18.976;2023-12-14T00:52:27;7.87;;;5.35;;
65665;SDS011;52365;47.464;18.976;2023-12-14T00:52:48;7.18;;;5.18;;
65665;SDS011;52365;47.464;18.976;2023-12-14T00:53:09;6.85;;;5.05;;
65665;SDS011;52365;47.464;18.976;2023-12-14T00:53:30;6.75;;;5.12;;
65665;SDS011;52365;47.464;18.976;2023-12-14T00:53:46;7.43;;;5.40;;
65665;SDS011;52365;47.464;18.976;2023-12-14T00:54:07;8.10;;;5.50;;
65665;SDS011;52365;47.464;18.976;2023-12-14T00:54:28;7.57;;;5.10;;
65665;SDS011;52365;47.464;18.976;2023-12-14T00:54:44;7.60;;;5.35;;
65665;SDS011;52365;47.464;18.976;2023-12-14T00:55:06;7.82;;;5.62;;
65665;SDS011;52365;47.464;18.976;2023-12-14T00:55:22;7.68;;;5.43;;
65665;SDS011;52365;47.464;18.976;2023-12-14T00:55:43;7.97;;;5.53;;
65665;SDS011;52365;47.464;18.976;2023-12-14T00:56:07;7.28;;;5.22;;
65665;SDS011;52365;47.464;18.976;2023-12-14T00:56:29;6.95;;;5.10;;
65665;SDS011;52365;47.464;18.976;2023-12-14T00:56:45;6.90;;;4.97;;
65665;SDS011;52365;47.464;18.976;2023-12-14T00:57:01;7.30;;;4.95;;
65665;SDS011;52365;47.464;18.976;2023-12-14T00:57:22;7.78;;;5.07;;
65665;SDS011;52365;47.464;18.976;2023-12-14T00:57:43;6.53;;;4.68;;
65665;SDS011;52365;47.464;18.976;2023-12-14T00:57:59;6.15;;;4.70;;
65665;SDS011;52365;47.464;18.976;2023-12-14T00:58:20;6.72;;;4.93;;
65665;SDS011;52365;47.464;18.976;2023-12-14T00:58:41;7.93;;;5.05;;
65665;SDS011;52365;47.464;18.976;2023-12-14T00:58:57;7.55;;;5.05;;
65665;SDS011;52365;47.464;18.976;2023-12-14T00:59:18;6.50;;;4.75;;
65665;SDS011;52365;47.464;18.976;2023-12-14T00:59:34;6.03;;;4.47;;
65665;SDS011;52365;47.464;18.976;2023-12-14T00:59:55;7.22;;;4.93;;
65665;SDS011;52365;47.464;18.976;2023-12-14T01:00:16;6.65;;;4.68;;
65665;SDS011;52365;47.464;18.976;2023-12-14T01:00:38;6.55;;;4.55;;
65665;SDS011;52365;47.464;18.976;2023-12-14T01:00:54;7.22;;;4.93;;
65665;SDS011;52365;47.464;18.976;2023-12-14T01:01:16;7.05;;;5.05;;
65665;SDS011;52365;47.464;18.976;2023-12-14T01:01:32;6.68;;;4.80;;
65665;SDS011;52365;47.464;18.976;2023-12-14T01:01:53;7.40;;;4.70;;
65665;SDS011;52365;47.464;18.976;2023-12-14T01:02:14;6.65;;;4.55;;
65665;SDS011;52365;47.464;18.976;2023-12-14T01:02:35;6.20;;;4.37;;
65665;SDS011;52365;47.464;18.976;2023-12-14T01:02:56;6.25;;;4.32;;
65665;SDS011;52365;47.464;18.976;2023-12-14T01:03:12;6.37;;;4.45;;
65665;SDS011;52365;47.464;18.976;2023-12-14T01:03:28;5.95;;;4.30;;
65665;SDS011;52365;47.464;18.976;2023-12-14T01:03:49;5.82;;;4.18;;
65665;SDS011;52365;47.464;18.976;2023-12-14T01:04:05;5.75;;;4.10;;
65665;SDS011;52365;47.464;18.976;2023-12-14T01:04:21;5.72;;;4.10;;
65665;SDS011;52365;47.464;18.976;2023-12-14T01:04:38;5.50;;;3.87;;
65665;SDS011;52365;47.464;18.976;2023-12-14T01:04:59;6.22;;;4.20;;
65665;SDS011;52365;47.464;18.976;2023-12-14T01:05:15;5.70;;;4.03;;
65665;SDS011;52365;47.464;18.976;2023-12-14T01:05:36;6.35;;;4.00;;
65665;SDS011;52365;47.464;18.976;2023-12-14T01:05:52;5.97;;;3.85;;
65665;SDS011;52365;47.464;18.976;2023-12-14T01:06:08;5.70;;;4.00;;
65665;SDS011;52365;47.464;18.976;2023-12-14T01:06:24;5.45;;;3.95;;
65665;SDS011;52365;47.464;18.976;2023-12-14T01:06:40;5.20;;;3.62;;
65665;SDS011;52365;47.464;18.976;2023-12-14T01:07:02;5.20;;;3.50;;
65665;SDS011;52365;47.464;18.976;2023-12-14T01:07:19;4.85;;;3.40;;
65665;SDS011;52365;47.464;18.976;2023-12-14T01:07:40;4.90;;;3.70;;
65665;SDS011;52365;47.464;18.976;2023-12-14T01:07:56;4.82;;;3.80;;
65665;SDS011;52365;47.464;18.976;2023-12-14T01:08:12;5.20;;;3.80;;
65665;SDS011;52365;47.464;18.976;2023-12-14T01:08:33;4.57;;;3.50;;
65665;SDS011;52365;47.464;18.976;2023-12-14T01:08:49;4.43;;;3.42;;
65665;SDS011;52365;47.464;18.976;2023-12-14T01:09:10;6.40;;;3.80;;
65665;SDS011;52365;47.464;18.976;2023-12-14T01:09:31;5.50;;;4.07;;
65665;SDS011;52365;47.464;18.976;2023-12-14T01:09:48;5.32;;;4.00;;
65665;SDS011;52365;47.464;18.976;2023-12-14T01:10:04;5.03;;;3.70;;
65665;SDS011;52365;47.464;18.976;2023-12-14T01:10:20;4.90;;;3.60;;
65665;SDS011;52365;47.464;18.976;2023-12-14T01:10:36;4.97;;;3.78;;
65665;SDS011;52365;47.464;18.976;2023-12-14T01:10:53;5.57;;;3.80;;
65665;SDS011;52365;47.464;18.976;2023-12-14T01:11:09;5.68;;;3.50;;
65665;SDS011;52365;47.464;18.976;2023-12-14T01:11:25;5.07;;;3.60;;
65665;SDS011;52365;47.464;18.976;2023-12-14T01:11:46;5.40;;;3.92;;
65665;SDS011;52365;47.464;18.976;2023-12-14T01:12:02;5.37;;;3.78;;
65665;SDS011;52365;47.464;18.976;2023-12-14T01:12:24;5.20;;;3.60;;
65665;SDS011;52365;47.464;18.976;2023-12-14T01:12:40;4.80;;;3.53;;
65665;SDS011;52365;47.464;18.976;2023-12-14T01:13:01;5.20;;;3.90;;
65665;SDS011;52365;47.464;18.976;2023-12-14T01:13:22;5.37;;;3.85;;
65665;SDS011;52365;47.464;18.976;2023-12-14T01:13:43;5.28;;;3.60;;
65665;SDS011;52365;47.464;18.976;2023-12-14T01:14:04;5.32;;;3.90;;
65665;SDS011;52365;47.464;18.976;2023-12-14T01:14:20;5.55;;;4.12;;
65665;SDS011;52365;47.464;18.976;2023-12-14T01:14:36;5.72;;;4.03;;
65665;SDS011;52365;47.464;18.976;2023-12-14T01:14:52;5.82;;;4.00;;
65665;SDS011;52365;47.464;18.976;2023-12-14T01:15:09;5.72;;;4.00;;
65665;SDS011;52365;47.464;18.976;2023-12-14T01:15:30;5.45;;;3.80;;
65665;SDS011;52365;47.464;18.976;2023-12-14T01:15:46;5.12;;;3.85;;
65665;SDS011;52365;47.464;18.976;2023-12-14T01:16:02;5.47;;;4.00;;
65665;SDS011;52365;47.464;18.976;2023-12-14T01:16:18;5.68;;;4.07;;
65665;SDS011;52365;47.464;18.976;2023-12-14T01:16:39;5.57;;;3.97;;
65665;SDS011;52365;47.464;18.976;2023-12-14T01:16:56;5.53;;;3.83;;
65665;SDS011;52365;47.464;18.976;2023-12-14T01:17:17;4.95;;;3.67;;
65665;SDS011;52365;47.464;18.976;2023-12-14T01:17:39;5.62;;;4.05;;
65665;SDS011;52365;47.464;18.976;2023-12-14T01:18:00;6.32;;;4.10;;
65665;SDS011;52365;47.464;18.976;2023-12-14T01:18:16;5.60;;;3.92;;
65665;SDS011;52365;47.464;18.976;2023-12-14T01:18:37;5.57;;;3.92;;
65665;SDS011;52365;47.464;18.976;2023-12-14T01:18:58;5.70;;;3.90;;
65665;SDS011;52365;47.464;18.976;2023-12-14T01:19:15;5.75;;;3.85;;
65665;SDS011;52365;47.464;18.976;2023-12-14T01:19:31;6.30;;;4.00;;
65665;SDS011;52365;47.464;18.976;2023-12-14T01:19:52;5.78;;;3.83;;
65665;SDS011;52365;47.464;18.976;2023-12-14T01:20:13;5.72;;;3.97;;
65665;SDS011;52365;47.464;18.976;2023-12-14T01:20:29;6.28;;;3.80;;
65665;SDS011;52365;47.464;18.976;2023-12-14T01:20:45;6.25;;;3.97;;
65665;SDS011;52365;47.464;18.976;2023-12-14T01:21:07;5.68;;;4.00;;
65665;SDS011;52365;47.464;18.976;2023-12-14T01:21:23;5.22;;;3.70;;
65665;SDS011;52365;47.464;18.976;2023-12-14T01:21:39;6.28;;;4.00;;
65665;SDS011;52365;47.464;18.976;2023-12-14T01:21:55;6.97;;;4.40;;
65665;SDS011;52365;47.464;18.976;2023-12-14T01:22:11;6.43;;;4.32;;
65665;SDS011;52365;47.464;18.976;2023-12-14T01:22:33;5.62;;;4.05;;
65665;SDS011;52365;47.464;18.976;2023-12-14T01:22:49;6.03;;;4.32;;
65665;SDS011;52365;47.464;18.976;2023-12-14T01:23:10;6.93;;;4.50;;
65665;SDS011;52365;47.464;18.976;2023-12-14T01:23:31;7.22;;;4.65;;
65665;SDS011;52365;47.464;18.976;2023-12-14T01:23:52;6.95;;;4.40;;
65665;SDS011;52365;47.464;18.976;2023-12-14T01:24:13;6.95;;;4.28;;
65665;SDS011;52365;47.464;18.976;2023-12-14T01:24:35;6.20;;;4.20;;
65665;SDS011;52365;47.464;18.976;2023-12-14T01:24:56;6.90;;;4.40;;
65665;SDS011;52365;47.464;18.976;2023-12-14T01:25:17;6.62;;;4.22;;
65665;SDS011;52365;47.464;18.976;2023-12-14T01:25:38;6.62;;;4.20;;
65665;SDS011;52365;47.464;18.976;2023-12-14T01:25:54;6.45;;;4.18;;
65665;SDS011;52365;47.464;18.976;2023-12-14T01:26:15;6.43;;;4.37;;
65665;SDS011;52365;47.464;18.976;2023-12-14T01:26:31;6.78;;;4.20;;
65665;SDS011;52365;47.464;18.976;2023-12-14T01:26:52;6.93;;;4.40;;
65665;SDS011;52365;47.464;18.976;2023-12-14T01:27:13;7.80;;;4.75;;
65665;SDS011;52365;47.464;18.976;2023-12-14T01:27:29;8.05;;;4.90;;
65665;SDS011;52365;47.464;18.976;2023-12-14T01:27:45;7.93;;;5.00;;
65665;SDS011;52365;47.464;18.976;2023-12-14T01:28:02;7.90;;;5.07;;
65665;SDS011;52365;47.464;18.976;2023-12-14T01:28:23;7.75;;;4.65;;
65665;SDS011;52365;47.464;18.976;2023-12-14T01:28:44;6.80;;;4.60;;
65665;SDS011;52365;47.464;18.976;2023-12-14T01:29:05;6.87;;;4.72;;
65665;SDS011;52365;47.464;18.976;2023-12-14T01:29:21;7.07;;;4.78;;
65665;SDS011;52365;47.464;18.976;2023-12-14T01:29:42;7.18;;;4.80;;
65665;SDS011;52365;47.464;18.976;2023-12-14T01:30:03;7.07;;;4.43;;
65665;SDS011;52365;47.464;18.976;2023-12-14T01:30:20;7.45;;;4.95;;
65665;SDS011;52365;47.464;18.976;2023-12-14T01:30:41;7.05;;;4.82;;
65665;SDS011;52365;47.464;18.976;2023-12-14T01:30:57;7.62;;;4.75;;
65665;SDS011;52365;47.464;18.976;2023-12-14T01:31:18;8.95;;;4.97;;
65665;SDS011;52365;47.464;18.976;2023-12-14T01:31:39;7.90;;;4.93;;
65665;SDS011;52365;47.464;18.976;2023-12-14T01:32:00;8.73;;;4.90;;
65665;SDS011;52365;47.464;18.976;2023-12-14T01:32:16;7.05;;;4.68;;
65665;SDS011;52365;47.464;18.976;2023-12-14T01:32:37;7.32;;;4.82;;
65665;SDS011;52365;47.464;18.976;2023-12-14T01:32:54;7.95;;;4.62;;
65665;SDS011;52365;47.464;18.976;2023-12-14T01:33:15;7.40;;;4.53;;
65665;SDS011;52365;47.464;18.976;2023-12-14T01:33:31;6.90;;;4.62;;
65665;SDS011;52365;47.464;18.976;2023-12-14T01:33:52;7.20;;;4.57;;
65665;SDS011;52365;47.464;18.976;2023-12-14T01:34:13;7.10;;;4.50;;
65665;SDS011;52365;47.464;18.976;2023-12-14T01:34:36;6.78;;;4.10;;
65665;SDS011;52365;47.464;18.976;2023-12-14T01:34:57;6.45;;;3.80;;
65665;SDS011;52365;47.464;18.976;2023-12-14T01:35:18;6.12;;;4.03;;
65665;SDS011;52365;47.464;18.976;2023-12-14T01:35:34;6.28;;;4.32;;
65665;SDS011;52365;47.464;18.976;2023-12-14T01:35:55;6.55;;;4.28;;
65665;SDS011;52365;47.464;18.976;2023-12-14T01:36:20;6.78;;;4.30;;
65665;SDS011;52365;47.464;18.976;2023-12-14T01:36:45;6.32;;;4.10;;
65665;SDS011;52365;47.464;18.976;2023-12-14T01:37:01;6.45;;;4.10;;
65665;SDS011;52365;47.464;18.976;2023-12-14T01:37:22;5.62;;;4.00;;
65665;SDS011;52365;47.464;18.976;2023-12-14T01:37:38;6.05;;;3.97;;
65665;SDS011;52365;47.464;18.976;2023-12-14T01:37:54;6.07;;;4.05;;
65665;SDS011;52365;47.464;18.976;2023-12-14T01:38:15;6.82;;;4.28;;
65665;SDS011;52365;47.464;18.976;2023-12-14T01:38:37;7.10;;;4.43;;
65665;SDS011;52365;47.464;18.976;2023-12-14T01:38:58;6.65;;;4.50;;
65665;SDS011;52365;47.464;18.976;2023-12-14T01:39:19;5.80;;;4.20;;
65665;SDS011;52365;47.464;18.976;2023-12-14T01:39:40;6.10;;;4.10;;
65665;SDS011;52365;47.464;18.976;2023-12-14T01:40:01;5.78;;;4.10;;
65665;SDS011;52365;47.464;18.976;2023-12-14T01:40:22;6.35;;;4.40;;
65665;SDS011;52365;47.464;18.976;2023-12-14T01:40:43;6.45;;;4.12;;
65665;SDS011;52365;47.464;18.976;2023-12-14T01:40:59;5.85;;;3.80;;
65665;SDS011;52365;47.464;18.976;2023-12-14T01:41:21;6.18;;;4.25;;
65665;SDS011;52365;47.464;18.976;2023-12-14T01:41:37;7.55;;;4.70;;
65665;SDS011;52365;47.464;18.976;2023-12-14T01:41:53;7.57;;;4.75;;
65665;SDS011;52365;47.464;18.976;2023-12-14T01:42:09;7.07;;;4.50;;
65665;SDS011;52365;47.464;18.976;2023-12-14T01:42:25;7.57;;;4.28;;
65665;SDS011;52365;47.464;18.976;2023-12-14T01:42:46;6.72;;;4.15;;
65665;SDS011;52365;47.464;18.976;2023-12-14T01:43:06;6.22;;;4.28;;
65665;SDS011;52365;47.464;18.976;2023-12-14T01:43:26;6.35;;;4.40;;
65665;SDS011;52365;47.464;18.976;2023-12-14T01:43:42;6.15;;;4.05;;
65665;SDS011;52365;47.464;18.976;2023-12-14T01:43:58;6.95;;;4.18;;
65665;SDS011;52365;47.464;18.976;2023-12-14T01:44:19;6.55;;;4.00;;
65665;SDS011;52365;47.464;18.976;2023-12-14T01:44:36;5.75;;;4.03;;
65665;SDS011;52365;47.464;18.976;2023-12-14T01:44:52;5.85;;;3.90;;
65665;SDS011;52365;47.464;18.976;2023-12-14T01:45:08;6.07;;;4.03;;
65665;SDS011;52365;47.464;18.976;2023-12-14T01:45:30;7.55;;;4.03;;
65665;SDS011;52365;47.464;18.976;2023-12-14T01:45:51;7.32;;;3.90;;
65665;SDS011;52365;47.464;18.976;2023-12-14T01:46:12;5.90;;;3.85;;
65665;SDS011;52365;47.464;18.976;2023-12-14T01:46:29;5.78;;;3.95;;
65665;SDS011;52365;47.464;18.976;2023-12-14T01:46:50;6.10;;;3.83;;
65665;SDS011;52365;47.464;18.976;2023-12-14T01:47:11;5.30;;;3.75;;
65665;SDS011;52365;47.464;18.976;2023-12-14T01:47:32;5.20;;;3.80;;
65665;SDS011;52365;47.464;18.976;2023-12-14T01:47:48;5.72;;;4.00;;
65665;SDS011;52365;47.464;18.976;2023-12-14T01:48:09;5.55;;;3.83;;
65665;SDS011;52365;47.464;18.976;2023-12-14T01:48:31;5.12;;;3.58;;
65665;SDS011;52365;47.464;18.976;2023-12-14T01:48:47;5.90;;;4.03;;
65665;SDS011;52365;47.464;18.976;2023-12-14T01:49:08;6.07;;;4.10;;
65665;SDS011;52365;47.464;18.976;2023-12-14T01:49:24;5.55;;;3.72;;
65665;SDS011;52365;47.464;18.976;2023-12-14T01:49:45;5.78;;;3.90;;
65665;SDS011;52365;47.464;18.976;2023-12-14T01:50:06;5.28;;;3.87;;
65665;SDS011;52365;47.464;18.976;2023-12-14T01:50:22;5.70;;;4.05;;
65665;SDS011;52365;47.464;18.976;2023-12-14T01:50:38;6.43;;;4.05;;
65665;SDS011;52365;47.464;18.976;2023-12-14T01:50:54;6.05;;;3.97;;
65665;SDS011;52365;47.464;18.976;2023-12-14T01:51:11;5.37;;;4.00;;
65665;SDS011;52365;47.464;18.976;2023-12-14T01:51:27;5.25;;;4.05;;
65665;SDS011;52365;47.464;18.976;2023-12-14T01:51:43;5.53;;;4.00;;
65665;SDS011;52365;47.464;18.976;2023-12-14T01:52:04;5.28;;;3.60;;
65665;SDS011;52365;47.464;18.976;2023-12-14T01:52:26;5.62;;;3.65;;